sensor_id;sensor_type;location;lat;lon;timestamp;P1;durP1;ratioP1;P2;durP2;ratioP2
75626;SDS011;67372;49.404;11.034;2023-08-21T00:01:26;13.82;;;10.35;;
75626;SDS011;67372;49.404;11.034;2023-08-21T00:03:52;12.05;;;9.45;;
75626;SDS011;67372;49.404;11.034;2023-08-21T00:06:18;11.75;;;9.90;;
75626;SDS011;67372;49.404;11.034;2023-08-21T00:08:45;13.07;;;9.27;;
75626;SDS011;67372;49.404;11.034;2023-08-21T00:11:11;13.50;;;10.32;;
75626;SDS011;67372;49.404;11.034;2023-08-21T00:13:37;13.27;;;10.02;;
75626;SDS011;67372;49.404;11.034;2023-08-21T00:16:04;13.32;;;9.90;;
75626;SDS011;67372;49.404;11.034;2023-08-21T00:18:30;13.07;;;9.73;;
75626;SDS011;67372;49.404;11.034;2023-08-21T00:20:57;12.43;;;9.77;;
75626;SDS011;67372;49.404;11.034;2023-08-21T00:23:23;16.63;;;10.10;;
75626;SDS011;67372;49.404;11.034;2023-08-21T00:25:50;13.32;;;9.93;;
75626;SDS011;67372;49.404;11.034;2023-08-21T00:28:16;13.52;;;9.88;;
75626;SDS011;67372;49.404;11.034;2023-08-21T00:33:09;14.70;;;10.45;;
75626;SDS011;67372;49.404;11.034;2023-08-21T00:35:36;14.45;;;9.70;;
75626;SDS011;67372;49.404;11.034;2023-08-21T00:38:02;13.70;;;10.07;;
75626;SDS011;67372;49.404;11.034;2023-08-21T00:40:30;14.77;;;10.10;;
75626;SDS011;67372;49.404;11.034;2023-08-21T00:42:57;13.70;;;10.02;;
75626;SDS011;67372;49.404;11.034;2023-08-21T00:45:23;12.88;;;9.57;;
75626;SDS011;67372;49.404;11.034;2023-08-21T00:47:50;12.15;;;10.13;;
75626;SDS011;67372;49.404;11.034;2023-08-21T00:50:17;14.23;;;10.38;;
75626;SDS011;67372;49.404;11.034;2023-08-21T00:52:44;14.35;;;11.30;;
75626;SDS011;67372;49.404;11.034;2023-08-21T00:55:12;12.68;;;9.95;;
75626;SDS011;67372;49.404;11.034;2023-08-21T00:57:39;12.70;;;9.45;;
75626;SDS011;67372;49.404;11.034;2023-08-21T01:00:06;13.77;;;10.60;;
75626;SDS011;67372;49.404;11.034;2023-08-21T01:02:34;13.40;;;10.00;;
75626;SDS011;67372;49.404;11.034;2023-08-21T01:05:00;13.85;;;10.10;;
75626;SDS011;67372;49.404;11.034;2023-08-21T01:07:27;14.80;;;11.20;;
75626;SDS011;67372;49.404;11.034;2023-08-21T01:12:29;13.48;;;10.85;;
75626;SDS011;67372;49.404;11.034;2023-08-21T01:17:30;16.63;;;11.07;;
75626;SDS011;67372;49.404;11.034;2023-08-21T01:19:58;15.73;;;10.98;;
75626;SDS011;67372;49.404;11.034;2023-08-21T01:22:26;15.88;;;11.88;;
75626;SDS011;67372;49.404;11.034;2023-08-21T01:27:20;16.23;;;11.43;;
75626;SDS011;67372;49.404;11.034;2023-08-21T01:29:47;14.57;;;10.80;;
75626;SDS011;67372;49.404;11.034;2023-08-21T01:32:14;14.63;;;11.63;;
75626;SDS011;67372;49.404;11.034;2023-08-21T01:34:58;16.70;;;11.38;;
75626;SDS011;67372;49.404;11.034;2023-08-21T01:37:25;18.35;;;12.02;;
75626;SDS011;67372;49.404;11.034;2023-08-21T01:39:52;17.35;;;11.75;;
75626;SDS011;67372;49.404;11.034;2023-08-21T01:42:19;18.05;;;11.40;;
75626;SDS011;67372;49.404;11.034;2023-08-21T01:44:45;17.10;;;12.15;;
75626;SDS011;67372;49.404;11.034;2023-08-21T01:47:11;16.35;;;12.13;;
75626;SDS011;67372;49.404;11.034;2023-08-21T01:52:04;16.92;;;12.27;;
75626;SDS011;67372;49.404;11.034;2023-08-21T01:54:31;19.33;;;12.18;;
75626;SDS011;67372;49.404;11.034;2023-08-21T01:56:58;17.73;;;12.77;;
75626;SDS011;67372;49.404;11.034;2023-08-21T01:59:24;18.25;;;13.27;;
75626;SDS011;67372;49.404;11.034;2023-08-21T02:01:51;17.48;;;12.85;;
75626;SDS011;67372;49.404;11.034;2023-08-21T02:04:17;16.48;;;12.70;;
75626;SDS011;67372;49.404;11.034;2023-08-21T02:06:43;19.15;;;12.85;;
75626;SDS011;67372;49.404;11.034;2023-08-21T02:09:10;18.40;;;13.63;;
75626;SDS011;67372;49.404;11.034;2023-08-21T02:11:36;20.02;;;12.85;;
75626;SDS011;67372;49.404;11.034;2023-08-21T02:14:03;17.90;;;13.95;;
75626;SDS011;67372;49.404;11.034;2023-08-21T02:16:29;19.35;;;13.68;;
75626;SDS011;67372;49.404;11.034;2023-08-21T02:18:56;19.38;;;14.02;;
75626;SDS011;67372;49.404;11.034;2023-08-21T02:21:22;19.08;;;13.68;;
75626;SDS011;67372;49.404;11.034;2023-08-21T02:23:49;19.98;;;14.18;;
75626;SDS011;67372;49.404;11.034;2023-08-21T02:26:15;19.13;;;13.45;;
75626;SDS011;67372;49.404;11.034;2023-08-21T02:28:41;18.90;;;13.50;;
75626;SDS011;67372;49.404;11.034;2023-08-21T02:31:11;22.00;;;14.27;;
75626;SDS011;67372;49.404;11.034;2023-08-21T02:33:37;19.83;;;14.13;;
75626;SDS011;67372;49.404;11.034;2023-08-21T02:36:04;20.35;;;13.85;;
75626;SDS011;67372;49.404;11.034;2023-08-21T02:38:31;19.80;;;14.65;;
75626;SDS011;67372;49.404;11.034;2023-08-21T02:40:57;24.70;;;15.35;;
75626;SDS011;67372;49.404;11.034;2023-08-21T02:43:23;22.45;;;14.77;;
75626;SDS011;67372;49.404;11.034;2023-08-21T02:45:50;20.83;;;14.10;;
75626;SDS011;67372;49.404;11.034;2023-08-21T02:48:16;22.17;;;14.80;;
75626;SDS011;67372;49.404;11.034;2023-08-21T02:50:42;20.38;;;14.25;;
75626;SDS011;67372;49.404;11.034;2023-08-21T02:53:09;20.27;;;14.32;;
75626;SDS011;67372;49.404;11.034;2023-08-21T02:55:35;21.15;;;14.77;;
75626;SDS011;67372;49.404;11.034;2023-08-21T02:58:02;18.85;;;13.70;;
75626;SDS011;67372;49.404;11.034;2023-08-21T03:00:28;20.63;;;14.35;;
75626;SDS011;67372;49.404;11.034;2023-08-21T03:02:55;22.83;;;14.98;;
75626;SDS011;67372;49.404;11.034;2023-08-21T03:05:22;21.33;;;13.98;;
75626;SDS011;67372;49.404;11.034;2023-08-21T03:07:48;19.75;;;14.02;;
75626;SDS011;67372;49.404;11.034;2023-08-21T03:10:15;24.00;;;14.75;;
75626;SDS011;67372;49.404;11.034;2023-08-21T03:12:41;18.77;;;13.57;;
75626;SDS011;67372;49.404;11.034;2023-08-21T03:15:08;21.52;;;14.43;;
75626;SDS011;67372;49.404;11.034;2023-08-21T03:17:34;22.75;;;14.00;;
75626;SDS011;67372;49.404;11.034;2023-08-21T03:20:01;22.75;;;15.00;;
75626;SDS011;67372;49.404;11.034;2023-08-21T03:22:28;19.30;;;13.75;;
75626;SDS011;67372;49.404;11.034;2023-08-21T03:24:54;21.95;;;14.18;;
75626;SDS011;67372;49.404;11.034;2023-08-21T03:27:21;22.40;;;15.02;;
75626;SDS011;67372;49.404;11.034;2023-08-21T03:29:48;22.80;;;14.98;;
75626;SDS011;67372;49.404;11.034;2023-08-21T03:32:15;19.95;;;14.48;;
75626;SDS011;67372;49.404;11.034;2023-08-21T03:34:44;23.50;;;14.77;;
75626;SDS011;67372;49.404;11.034;2023-08-21T03:37:11;21.70;;;13.85;;
75626;SDS011;67372;49.404;11.034;2023-08-21T03:39:38;22.15;;;15.32;;
75626;SDS011;67372;49.404;11.034;2023-08-21T03:42:04;20.65;;;14.32;;
75626;SDS011;67372;49.404;11.034;2023-08-21T03:44:31;20.58;;;14.25;;
75626;SDS011;67372;49.404;11.034;2023-08-21T03:46:57;22.17;;;15.02;;
75626;SDS011;67372;49.404;11.034;2023-08-21T03:49:23;20.42;;;14.30;;
75626;SDS011;67372;49.404;11.034;2023-08-21T03:51:50;23.27;;;15.15;;
75626;SDS011;67372;49.404;11.034;2023-08-21T03:54:16;21.98;;;15.50;;
75626;SDS011;67372;49.404;11.034;2023-08-21T03:56:43;22.15;;;15.38;;
75626;SDS011;67372;49.404;11.034;2023-08-21T03:59:09;27.27;;;16.13;;
75626;SDS011;67372;49.404;11.034;2023-08-21T04:01:35;21.88;;;14.80;;
75626;SDS011;67372;49.404;11.034;2023-08-21T04:04:02;22.80;;;15.98;;
75626;SDS011;67372;49.404;11.034;2023-08-21T04:06:28;21.83;;;14.73;;
75626;SDS011;67372;49.404;11.034;2023-08-21T04:08:55;24.85;;;15.52;;
75626;SDS011;67372;49.404;11.034;2023-08-21T04:11:21;24.83;;;15.98;;
75626;SDS011;67372;49.404;11.034;2023-08-21T04:13:47;29.98;;;15.52;;
75626;SDS011;67372;49.404;11.034;2023-08-21T04:16:14;24.02;;;16.05;;
75626;SDS011;67372;49.404;11.034;2023-08-21T04:18:40;25.88;;;15.93;;
75626;SDS011;67372;49.404;11.034;2023-08-21T04:21:08;22.98;;;16.33;;
75626;SDS011;67372;49.404;11.034;2023-08-21T04:23:34;23.17;;;16.05;;
75626;SDS011;67372;49.404;11.034;2023-08-21T04:26:01;25.50;;;16.55;;
75626;SDS011;67372;49.404;11.034;2023-08-21T04:28:29;23.10;;;15.63;;
75626;SDS011;67372;49.404;11.034;2023-08-21T04:30:56;23.63;;;16.92;;
75626;SDS011;67372;49.404;11.034;2023-08-21T04:33:27;22.80;;;16.25;;
75626;SDS011;67372;49.404;11.034;2023-08-21T04:35:55;26.45;;;16.48;;
75626;SDS011;67372;49.404;11.034;2023-08-21T04:38:21;26.10;;;16.55;;
75626;SDS011;67372;49.404;11.034;2023-08-21T04:40:48;26.77;;;16.00;;
75626;SDS011;67372;49.404;11.034;2023-08-21T04:43:14;23.08;;;15.82;;
75626;SDS011;67372;49.404;11.034;2023-08-21T04:45:47;25.40;;;16.40;;
75626;SDS011;67372;49.404;11.034;2023-08-21T04:48:17;25.60;;;17.45;;
75626;SDS011;67372;49.404;11.034;2023-08-21T04:50:45;24.92;;;16.75;;
75626;SDS011;67372;49.404;11.034;2023-08-21T04:53:11;24.33;;;16.20;;
75626;SDS011;67372;49.404;11.034;2023-08-21T04:55:39;23.50;;;16.33;;
75626;SDS011;67372;49.404;11.034;2023-08-21T04:58:06;22.35;;;15.20;;
75626;SDS011;67372;49.404;11.034;2023-08-21T05:00:33;23.27;;;14.75;;
75626;SDS011;67372;49.404;11.034;2023-08-21T05:03:00;23.73;;;15.45;;
75626;SDS011;67372;49.404;11.034;2023-08-21T05:05:27;25.40;;;16.70;;
75626;SDS011;67372;49.404;11.034;2023-08-21T05:07:53;21.60;;;15.05;;
75626;SDS011;67372;49.404;11.034;2023-08-21T05:10:19;21.20;;;14.40;;
75626;SDS011;67372;49.404;11.034;2023-08-21T05:12:46;24.23;;;15.43;;
75626;SDS011;67372;49.404;11.034;2023-08-21T05:15:12;23.60;;;15.90;;
75626;SDS011;67372;49.404;11.034;2023-08-21T05:17:39;21.20;;;15.10;;
75626;SDS011;67372;49.404;11.034;2023-08-21T05:20:06;23.25;;;15.45;;
75626;SDS011;67372;49.404;11.034;2023-08-21T05:22:32;21.65;;;14.88;;
75626;SDS011;67372;49.404;11.034;2023-08-21T05:24:59;23.65;;;15.98;;
75626;SDS011;67372;49.404;11.034;2023-08-21T05:27:25;23.40;;;16.27;;
75626;SDS011;67372;49.404;11.034;2023-08-21T05:29:51;26.58;;;17.13;;
75626;SDS011;67372;49.404;11.034;2023-08-21T05:32:18;24.77;;;16.75;;
75626;SDS011;67372;49.404;11.034;2023-08-21T05:34:44;26.27;;;16.92;;
75626;SDS011;67372;49.404;11.034;2023-08-21T05:37:11;25.70;;;17.40;;
75626;SDS011;67372;49.404;11.034;2023-08-21T05:39:37;23.98;;;16.38;;
75626;SDS011;67372;49.404;11.034;2023-08-21T05:42:04;24.27;;;16.42;;
75626;SDS011;67372;49.404;11.034;2023-08-21T05:44:30;23.27;;;16.27;;
75626;SDS011;67372;49.404;11.034;2023-08-21T05:46:56;23.35;;;16.38;;
75626;SDS011;67372;49.404;11.034;2023-08-21T05:49:23;25.02;;;17.02;;
75626;SDS011;67372;49.404;11.034;2023-08-21T05:51:49;24.02;;;16.08;;
75626;SDS011;67372;49.404;11.034;2023-08-21T05:54:16;25.23;;;16.58;;
75626;SDS011;67372;49.404;11.034;2023-08-21T05:56:42;23.60;;;16.75;;
75626;SDS011;67372;49.404;11.034;2023-08-21T05:59:11;24.92;;;16.60;;
75626;SDS011;67372;49.404;11.034;2023-08-21T06:01:38;26.00;;;16.48;;
75626;SDS011;67372;49.404;11.034;2023-08-21T06:04:04;23.58;;;16.17;;
75626;SDS011;67372;49.404;11.034;2023-08-21T06:06:31;25.63;;;16.40;;
75626;SDS011;67372;49.404;11.034;2023-08-21T06:08:57;24.27;;;16.85;;
75626;SDS011;67372;49.404;11.034;2023-08-21T06:11:24;25.27;;;16.52;;
75626;SDS011;67372;49.404;11.034;2023-08-21T06:13:50;26.75;;;17.10;;
75626;SDS011;67372;49.404;11.034;2023-08-21T06:16:16;23.63;;;16.48;;
75626;SDS011;67372;49.404;11.034;2023-08-21T06:18:43;24.42;;;15.75;;
75626;SDS011;67372;49.404;11.034;2023-08-21T06:21:09;24.33;;;16.40;;
75626;SDS011;67372;49.404;11.034;2023-08-21T06:23:36;22.98;;;16.08;;
75626;SDS011;67372;49.404;11.034;2023-08-21T06:26:02;23.15;;;14.55;;
75626;SDS011;67372;49.404;11.034;2023-08-21T06:28:28;23.38;;;16.13;;
75626;SDS011;67372;49.404;11.034;2023-08-21T06:30:55;25.90;;;16.02;;
75626;SDS011;67372;49.404;11.034;2023-08-21T06:33:23;24.10;;;15.77;;
75626;SDS011;67372;49.404;11.034;2023-08-21T06:35:49;25.55;;;16.17;;
75626;SDS011;67372;49.404;11.034;2023-08-21T06:38:16;25.23;;;17.20;;
75626;SDS011;67372;49.404;11.034;2023-08-21T06:40:42;22.15;;;15.88;;
75626;SDS011;67372;49.404;11.034;2023-08-21T06:43:11;24.73;;;16.38;;
75626;SDS011;67372;49.404;11.034;2023-08-21T06:45:37;25.20;;;16.55;;
75626;SDS011;67372;49.404;11.034;2023-08-21T06:48:03;25.55;;;17.08;;
75626;SDS011;67372;49.404;11.034;2023-08-21T06:50:30;25.13;;;16.60;;
75626;SDS011;67372;49.404;11.034;2023-08-21T06:52:57;23.65;;;16.10;;
75626;SDS011;67372;49.404;11.034;2023-08-21T06:55:23;22.63;;;15.70;;
75626;SDS011;67372;49.404;11.034;2023-08-21T06:57:49;24.10;;;16.25;;
75626;SDS011;67372;49.404;11.034;2023-08-21T07:00:16;24.65;;;16.75;;
75626;SDS011;67372;49.404;11.034;2023-08-21T07:02:42;25.48;;;16.80;;
75626;SDS011;67372;49.404;11.034;2023-08-21T07:05:09;24.90;;;17.02;;
75626;SDS011;67372;49.404;11.034;2023-08-21T07:07:38;27.20;;;17.85;;
75626;SDS011;67372;49.404;11.034;2023-08-21T07:10:04;24.70;;;16.77;;
75626;SDS011;67372;49.404;11.034;2023-08-21T07:12:31;25.30;;;17.25;;
75626;SDS011;67372;49.404;11.034;2023-08-21T07:14:57;24.88;;;16.98;;
75626;SDS011;67372;49.404;11.034;2023-08-21T07:17:23;25.08;;;15.98;;
75626;SDS011;67372;49.404;11.034;2023-08-21T07:19:50;23.83;;;15.88;;
75626;SDS011;67372;49.404;11.034;2023-08-21T07:22:16;25.25;;;15.55;;
75626;SDS011;67372;49.404;11.034;2023-08-21T07:24:43;24.48;;;16.23;;
75626;SDS011;67372;49.404;11.034;2023-08-21T07:27:09;24.52;;;16.27;;
75626;SDS011;67372;49.404;11.034;2023-08-21T07:29:35;19.95;;;14.48;;
75626;SDS011;67372;49.404;11.034;2023-08-21T07:32:02;24.15;;;16.73;;
75626;SDS011;67372;49.404;11.034;2023-08-21T07:34:28;21.17;;;15.57;;
75626;SDS011;67372;49.404;11.034;2023-08-21T07:36:54;22.92;;;15.85;;
75626;SDS011;67372;49.404;11.034;2023-08-21T07:39:21;25.70;;;17.25;;
75626;SDS011;67372;49.404;11.034;2023-08-21T07:41:47;23.98;;;16.83;;
75626;SDS011;67372;49.404;11.034;2023-08-21T07:44:14;22.13;;;15.85;;
75626;SDS011;67372;49.404;11.034;2023-08-21T07:46:40;23.08;;;15.77;;
75626;SDS011;67372;49.404;11.034;2023-08-21T07:49:06;25.38;;;16.42;;
75626;SDS011;67372;49.404;11.034;2023-08-21T07:51:33;22.40;;;15.80;;
75626;SDS011;67372;49.404;11.034;2023-08-21T07:53:59;23.10;;;17.13;;
75626;SDS011;67372;49.404;11.034;2023-08-21T07:56:26;24.35;;;16.08;;
75626;SDS011;67372;49.404;11.034;2023-08-21T07:58:53;25.63;;;16.25;;
75626;SDS011;67372;49.404;11.034;2023-08-21T08:01:19;24.13;;;16.83;;
75626;SDS011;67372;49.404;11.034;2023-08-21T08:03:45;25.67;;;16.42;;
75626;SDS011;67372;49.404;11.034;2023-08-21T08:06:12;23.13;;;15.60;;
75626;SDS011;67372;49.404;11.034;2023-08-21T08:08:38;22.85;;;16.05;;
75626;SDS011;67372;49.404;11.034;2023-08-21T08:11:04;26.15;;;16.05;;
75626;SDS011;67372;49.404;11.034;2023-08-21T08:13:31;22.33;;;15.43;;
75626;SDS011;67372;49.404;11.034;2023-08-21T08:15:58;22.15;;;15.98;;
75626;SDS011;67372;49.404;11.034;2023-08-21T08:18:24;24.00;;;16.25;;
75626;SDS011;67372;49.404;11.034;2023-08-21T08:20:51;21.38;;;14.10;;
75626;SDS011;67372;49.404;11.034;2023-08-21T08:23:17;21.75;;;15.57;;
75626;SDS011;67372;49.404;11.034;2023-08-21T08:25:47;21.65;;;15.15;;
75626;SDS011;67372;49.404;11.034;2023-08-21T08:28:13;21.27;;;14.98;;
75626;SDS011;67372;49.404;11.034;2023-08-21T08:30:39;19.05;;;14.00;;
75626;SDS011;67372;49.404;11.034;2023-08-21T08:33:06;23.23;;;14.80;;
75626;SDS011;67372;49.404;11.034;2023-08-21T08:35:32;17.02;;;13.13;;
75626;SDS011;67372;49.404;11.034;2023-08-21T08:37:58;18.73;;;14.68;;
75626;SDS011;67372;49.404;11.034;2023-08-21T08:40:25;19.10;;;13.80;;
75626;SDS011;67372;49.404;11.034;2023-08-21T08:42:51;16.58;;;12.80;;
75626;SDS011;67372;49.404;11.034;2023-08-21T08:45:19;18.75;;;13.50;;
75626;SDS011;67372;49.404;11.034;2023-08-21T08:47:54;15.57;;;12.32;;
75626;SDS011;67372;49.404;11.034;2023-08-21T08:50:21;17.23;;;13.13;;
75626;SDS011;67372;49.404;11.034;2023-08-21T08:52:48;18.25;;;12.95;;
75626;SDS011;67372;49.404;11.034;2023-08-21T08:55:14;19.13;;;13.38;;
75626;SDS011;67372;49.404;11.034;2023-08-21T08:57:41;16.60;;;12.02;;
75626;SDS011;67372;49.404;11.034;2023-08-21T09:00:07;16.98;;;12.43;;
75626;SDS011;67372;49.404;11.034;2023-08-21T09:02:34;17.98;;;13.27;;
75626;SDS011;67372;49.404;11.034;2023-08-21T09:05:00;18.05;;;12.45;;
75626;SDS011;67372;49.404;11.034;2023-08-21T09:07:28;17.70;;;12.95;;
75626;SDS011;67372;49.404;11.034;2023-08-21T09:09:54;17.75;;;13.68;;
75626;SDS011;67372;49.404;11.034;2023-08-21T09:12:21;16.48;;;12.50;;
75626;SDS011;67372;49.404;11.034;2023-08-21T09:17:14;16.25;;;12.82;;
75626;SDS011;67372;49.404;11.034;2023-08-21T09:19:41;16.83;;;12.70;;
75626;SDS011;67372;49.404;11.034;2023-08-21T09:22:09;17.88;;;12.65;;
75626;SDS011;67372;49.404;11.034;2023-08-21T09:24:37;18.17;;;12.38;;
75626;SDS011;67372;49.404;11.034;2023-08-21T09:27:12;17.60;;;11.70;;
75626;SDS011;67372;49.404;11.034;2023-08-21T09:29:39;16.55;;;11.45;;
75626;SDS011;67372;49.404;11.034;2023-08-21T09:32:07;14.20;;;11.77;;
75626;SDS011;67372;49.404;11.034;2023-08-21T09:34:37;13.88;;;10.80;;
75626;SDS011;67372;49.404;11.034;2023-08-21T09:37:06;14.25;;;10.85;;
75626;SDS011;67372;49.404;11.034;2023-08-21T09:39:37;14.55;;;10.57;;
75626;SDS011;67372;49.404;11.034;2023-08-21T09:42:07;16.90;;;10.90;;
75626;SDS011;67372;49.404;11.034;2023-08-21T09:44:40;17.38;;;10.77;;
75626;SDS011;67372;49.404;11.034;2023-08-21T09:47:07;14.93;;;10.95;;
75626;SDS011;67372;49.404;11.034;2023-08-21T09:49:38;14.75;;;10.45;;
75626;SDS011;67372;49.404;11.034;2023-08-21T09:52:05;13.18;;;9.93;;
75626;SDS011;67372;49.404;11.034;2023-08-21T09:54:33;13.13;;;9.57;;
75626;SDS011;67372;49.404;11.034;2023-08-21T09:57:01;13.55;;;10.23;;
75626;SDS011;67372;49.404;11.034;2023-08-21T09:59:29;10.48;;;8.30;;
75626;SDS011;67372;49.404;11.034;2023-08-21T10:01:58;9.35;;;7.13;;
75626;SDS011;67372;49.404;11.034;2023-08-21T10:04:27;9.07;;;6.72;;
75626;SDS011;67372;49.404;11.034;2023-08-21T10:06:55;8.23;;;6.35;;
75626;SDS011;67372;49.404;11.034;2023-08-21T10:09:23;10.82;;;8.00;;
75626;SDS011;67372;49.404;11.034;2023-08-21T10:11:50;11.90;;;8.50;;
75626;SDS011;67372;49.404;11.034;2023-08-21T10:14:19;10.07;;;7.70;;
75626;SDS011;67372;49.404;11.034;2023-08-21T10:16:47;8.45;;;7.22;;
75626;SDS011;67372;49.404;11.034;2023-08-21T10:21:40;8.30;;;6.28;;
75626;SDS011;67372;49.404;11.034;2023-08-21T10:24:07;9.05;;;6.88;;
75626;SDS011;67372;49.404;11.034;2023-08-21T10:26:37;9.93;;;6.95;;
75626;SDS011;67372;49.404;11.034;2023-08-21T10:29:06;9.55;;;7.40;;
75626;SDS011;67372;49.404;11.034;2023-08-21T10:31:40;10.00;;;7.32;;
75626;SDS011;67372;49.404;11.034;2023-08-21T10:34:10;9.25;;;6.95;;
75626;SDS011;67372;49.404;11.034;2023-08-21T10:39:15;8.80;;;6.60;;
75626;SDS011;67372;49.404;11.034;2023-08-21T10:42:01;9.13;;;6.47;;
75626;SDS011;67372;49.404;11.034;2023-08-21T10:47:14;8.73;;;7.20;;
75626;SDS011;67372;49.404;11.034;2023-08-21T10:49:41;9.35;;;6.95;;
75626;SDS011;67372;49.404;11.034;2023-08-21T10:52:08;9.90;;;7.15;;
75626;SDS011;67372;49.404;11.034;2023-08-21T10:54:47;9.55;;;7.65;;
75626;SDS011;67372;49.404;11.034;2023-08-21T10:57:16;11.55;;;7.18;;
75626;SDS011;67372;49.404;11.034;2023-08-21T11:02:16;9.05;;;6.70;;
75626;SDS011;67372;49.404;11.034;2023-08-21T11:04:42;7.68;;;6.88;;
75626;SDS011;67372;49.404;11.034;2023-08-21T11:07:09;8.48;;;6.65;;
75626;SDS011;67372;49.404;11.034;2023-08-21T11:12:06;9.32;;;6.78;;
75626;SDS011;67372;49.404;11.034;2023-08-21T11:14:42;7.13;;;5.88;;
75626;SDS011;67372;49.404;11.034;2023-08-21T11:17:09;7.97;;;6.63;;
75626;SDS011;67372;49.404;11.034;2023-08-21T11:19:36;9.38;;;6.80;;
75626;SDS011;67372;49.404;11.034;2023-08-21T11:22:04;10.63;;;6.82;;
75626;SDS011;67372;49.404;11.034;2023-08-21T11:24:38;8.52;;;6.70;;
75626;SDS011;67372;49.404;11.034;2023-08-21T11:27:13;9.15;;;6.75;;
75626;SDS011;67372;49.404;11.034;2023-08-21T11:32:15;8.38;;;6.82;;
75626;SDS011;67372;49.404;11.034;2023-08-21T11:34:50;8.95;;;7.20;;
75626;SDS011;67372;49.404;11.034;2023-08-21T11:37:18;8.98;;;7.55;;
75626;SDS011;67372;49.404;11.034;2023-08-21T11:39:50;9.85;;;7.45;;
75626;SDS011;67372;49.404;11.034;2023-08-21T11:42:18;8.45;;;7.57;;
75626;SDS011;67372;49.404;11.034;2023-08-21T11:44:47;11.52;;;8.13;;
75626;SDS011;67372;49.404;11.034;2023-08-21T11:47:15;9.32;;;7.72;;
75626;SDS011;67372;49.404;11.034;2023-08-21T11:49:43;9.48;;;7.75;;
75626;SDS011;67372;49.404;11.034;2023-08-21T11:52:11;9.93;;;8.13;;
75626;SDS011;67372;49.404;11.034;2023-08-21T11:54:38;9.45;;;8.27;;
75626;SDS011;67372;49.404;11.034;2023-08-21T11:57:06;11.68;;;7.93;;
75626;SDS011;67372;49.404;11.034;2023-08-21T11:59:39;9.77;;;7.55;;
75626;SDS011;67372;49.404;11.034;2023-08-21T12:02:25;10.80;;;7.38;;
75626;SDS011;67372;49.404;11.034;2023-08-21T12:04:53;10.07;;;7.95;;
75626;SDS011;67372;49.404;11.034;2023-08-21T12:07:20;9.55;;;7.53;;
75626;SDS011;67372;49.404;11.034;2023-08-21T12:09:47;8.70;;;7.53;;
75626;SDS011;67372;49.404;11.034;2023-08-21T12:12:13;9.48;;;8.10;;
75626;SDS011;67372;49.404;11.034;2023-08-21T12:14:40;10.32;;;7.90;;
75626;SDS011;67372;49.404;11.034;2023-08-21T12:17:06;10.05;;;8.27;;
75626;SDS011;67372;49.404;11.034;2023-08-21T12:19:32;11.18;;;7.63;;
75626;SDS011;67372;49.404;11.034;2023-08-21T12:21:59;9.48;;;7.25;;
75626;SDS011;67372;49.404;11.034;2023-08-21T12:24:25;11.05;;;7.53;;
75626;SDS011;67372;49.404;11.034;2023-08-21T12:26:52;8.93;;;7.10;;
75626;SDS011;67372;49.404;11.034;2023-08-21T12:29:18;8.50;;;6.82;;
75626;SDS011;67372;49.404;11.034;2023-08-21T12:31:44;10.13;;;7.07;;
75626;SDS011;67372;49.404;11.034;2023-08-21T12:34:11;11.10;;;7.30;;
75626;SDS011;67372;49.404;11.034;2023-08-21T12:36:37;9.63;;;7.13;;
75626;SDS011;67372;49.404;11.034;2023-08-21T12:39:04;7.53;;;6.70;;
75626;SDS011;67372;49.404;11.034;2023-08-21T12:41:30;9.68;;;6.75;;
75626;SDS011;67372;49.404;11.034;2023-08-21T12:43:57;8.00;;;6.80;;
75626;SDS011;67372;49.404;11.034;2023-08-21T12:46:24;7.80;;;6.32;;
75626;SDS011;67372;49.404;11.034;2023-08-21T12:51:16;10.38;;;6.72;;
75626;SDS011;67372;49.404;11.034;2023-08-21T12:53:43;8.30;;;6.47;;
75626;SDS011;67372;49.404;11.034;2023-08-21T12:56:09;8.43;;;6.80;;
75626;SDS011;67372;49.404;11.034;2023-08-21T12:58:35;8.00;;;6.50;;
75626;SDS011;67372;49.404;11.034;2023-08-21T13:01:02;11.52;;;7.03;;
75626;SDS011;67372;49.404;11.034;2023-08-21T13:03:29;11.23;;;6.82;;
75626;SDS011;67372;49.404;11.034;2023-08-21T13:05:55;8.52;;;6.75;;
75626;SDS011;67372;49.404;11.034;2023-08-21T13:08:22;10.10;;;6.45;;
75626;SDS011;67372;49.404;11.034;2023-08-21T13:10:48;9.10;;;7.20;;
75626;SDS011;67372;49.404;11.034;2023-08-21T13:15:41;9.30;;;6.57;;
75626;SDS011;67372;49.404;11.034;2023-08-21T13:18:07;8.35;;;6.65;;
75626;SDS011;67372;49.404;11.034;2023-08-21T13:23:00;7.35;;;6.10;;
75626;SDS011;67372;49.404;11.034;2023-08-21T13:25:27;8.77;;;6.53;;
75626;SDS011;67372;49.404;11.034;2023-08-21T13:27:54;8.23;;;6.60;;
75626;SDS011;67372;49.404;11.034;2023-08-21T13:30:21;9.93;;;6.25;;
75626;SDS011;67372;49.404;11.034;2023-08-21T13:32:47;8.45;;;6.25;;
75626;SDS011;67372;49.404;11.034;2023-08-21T13:35:14;9.07;;;6.28;;
75626;SDS011;67372;49.404;11.034;2023-08-21T13:37:40;8.73;;;6.05;;
75626;SDS011;67372;49.404;11.034;2023-08-21T13:40:07;7.40;;;6.35;;
75626;SDS011;67372;49.404;11.034;2023-08-21T13:42:37;8.60;;;6.18;;
75626;SDS011;67372;49.404;11.034;2023-08-21T13:45:04;8.10;;;6.57;;
75626;SDS011;67372;49.404;11.034;2023-08-21T13:47:31;8.68;;;6.03;;
75626;SDS011;67372;49.404;11.034;2023-08-21T13:49:57;7.03;;;6.15;;
75626;SDS011;67372;49.404;11.034;2023-08-21T13:52:24;8.45;;;5.53;;
75626;SDS011;67372;49.404;11.034;2023-08-21T13:57:16;8.98;;;5.60;;
75626;SDS011;67372;49.404;11.034;2023-08-21T14:02:09;7.38;;;5.50;;
75626;SDS011;67372;49.404;11.034;2023-08-21T14:04:36;7.60;;;5.80;;
75626;SDS011;67372;49.404;11.034;2023-08-21T14:09:28;7.68;;;5.80;;
75626;SDS011;67372;49.404;11.034;2023-08-21T14:11:54;7.22;;;5.57;;
75626;SDS011;67372;49.404;11.034;2023-08-21T14:16:47;7.82;;;6.07;;
75626;SDS011;67372;49.404;11.034;2023-08-21T14:19:14;6.50;;;5.65;;
75626;SDS011;67372;49.404;11.034;2023-08-21T14:21:40;10.05;;;6.07;;
75626;SDS011;67372;49.404;11.034;2023-08-21T14:24:06;6.80;;;5.82;;
75626;SDS011;67372;49.404;11.034;2023-08-21T14:26:33;8.07;;;5.25;;
75626;SDS011;67372;49.404;11.034;2023-08-21T14:31:25;8.45;;;5.53;;
75626;SDS011;67372;49.404;11.034;2023-08-21T14:33:52;9.57;;;6.00;;
75626;SDS011;67372;49.404;11.034;2023-08-21T14:38:44;7.25;;;5.38;;
75626;SDS011;67372;49.404;11.034;2023-08-21T14:41:11;9.05;;;5.30;;
75626;SDS011;67372;49.404;11.034;2023-08-21T14:43:37;10.32;;;5.35;;
75626;SDS011;67372;49.404;11.034;2023-08-21T14:46:04;9.43;;;5.53;;
75626;SDS011;67372;49.404;11.034;2023-08-21T14:50:56;6.38;;;5.72;;
75626;SDS011;67372;49.404;11.034;2023-08-21T14:53:23;8.05;;;5.80;;
75626;SDS011;67372;49.404;11.034;2023-08-21T14:55:52;7.07;;;5.65;;
75626;SDS011;67372;49.404;11.034;2023-08-21T14:58:19;8.48;;;5.53;;
75626;SDS011;67372;49.404;11.034;2023-08-21T15:00:45;10.73;;;6.18;;
75626;SDS011;67372;49.404;11.034;2023-08-21T15:03:13;7.30;;;5.35;;
75626;SDS011;67372;49.404;11.034;2023-08-21T15:05:40;6.57;;;5.32;;
75626;SDS011;67372;49.404;11.034;2023-08-21T15:10:32;7.72;;;6.07;;
75626;SDS011;67372;49.404;11.034;2023-08-21T15:12:59;10.07;;;5.95;;